Time;durP1;ratioP1;P1;durP2;ratioP2;P2;SDS_P1;SDS_P2;PMS_P1;PMS_P2;Temp;Humidity;BMP_temperature;BMP_pressure;BME280_temperature;BME280_humidity;BME280_pressure;Samples;Min_cycle;Max_cycle;Signal;HPM_P1;HPM_P2
2021/03/11 00:03:00;;;;;;;44.70;17.47;;;;;;;;;;6146328;23;20177;-89
2021/03/11 00:06:06;;;;;;;47.50;17.70;;;;;;;;;;6144973;23;20220;-89
2021/03/11 00:09:10;;;;;;;49.80;17.50;;;;;;;;;;6146513;23;20182;-90
2021/03/11 00:12:17;;;;;;;43.53;16.63;;;;;;;;;;6147072;23;20191;-89
2021/03/11 00:15:24;;;;;;;51.33;17.83;;;;;;;;;;6154495;23;20241;-90
2021/03/11 00:18:29;;;;;;;48.27;18.37;;;;;;;;;;6147812;23;20176;-90
2021/03/11 00:21:33;;;;;;;49.40;17.87;;;;;;;;;;6147601;23;20172;-90
2021/03/11 00:24:38;;;;;;;52.80;18.33;;;;;;;;;;6146845;23;20212;-90
2021/03/11 00:27:42;;;;;;;49.97;17.70;;;;;;;;;;6146672;23;20172;-90
2021/03/11 00:30:49;;;;;;;51.27;18.37;;;;;;;;;;6147239;23;20176;-86
2021/03/11 00:33:53;;;;;;;49.53;17.87;;;;;;;;;;6149410;23;20184;-87
2021/03/11 00:36:58;;;;;;;52.00;18.57;;;;;;;;;;6146782;23;20187;-90
2021/03/11 00:40:02;;;;;;;54.43;18.90;;;;;;;;;;6147479;23;20515;-92
2021/03/11 00:43:09;;;;;;;53.67;19.17;;;;;;;;;;6146802;23;20180;-91
2021/03/11 00:46:15;;;;;;;54.27;19.70;;;;;;;;;;6147886;23;20189;-89
2021/03/11 00:49:19;;;;;;;50.17;17.87;;;;;;;;;;6148862;23;20171;-88
2021/03/11 00:52:25;;;;;;;55.67;18.90;;;;;;;;;;6149027;23;20180;-89
2021/03/11 00:55:31;;;;;;;52.83;18.77;;;;;;;;;;6149391;23;20191;-89
2021/03/11 00:58:35;;;;;;;54.93;19.83;;;;;;;;;;6150142;23;20167;-91
2021/03/11 01:01:42;;;;;;;53.77;19.93;;;;;;;;;;6150149;23;20232;-88
2021/03/11 01:04:49;;;;;;;59.87;20.33;;;;;;;;;;6147540;23;20215;-89
2021/03/11 01:07:53;;;;;;;59.00;19.70;;;;;;;;;;6146693;23;20180;-89
2021/03/11 01:10:58;;;;;;;59.77;21.53;;;;;;;;;;6145375;23;20500;-89
2021/03/11 01:14:03;;;;;;;51.30;19.33;;;;;;;;;;6145395;23;20659;-90
2021/03/11 01:17:08;;;;;;;54.27;20.90;;;;;;;;;;6146277;23;20660;-91
2021/03/11 01:20:14;;;;;;;61.20;21.37;;;;;;;;;;6145615;23;20176;-91
2021/03/11 01:23:18;;;;;;;57.57;19.97;;;;;;;;;;6144907;23;20176;-91
2021/03/11 01:26:23;;;;;;;56.70;21.03;;;;;;;;;;6143329;23;20164;-89
2021/03/11 01:29:27;;;;;;;60.53;22.37;;;;;;;;;;6145716;23;20161;-90
2021/03/11 01:32:32;;;;;;;56.70;20.23;;;;;;;;;;6145051;23;20216;-91
2021/03/11 01:35:37;;;;;;;59.27;22.97;;;;;;;;;;6146483;23;20233;-91
2021/03/11 01:38:41;;;;;;;57.47;21.43;;;;;;;;;;6146939;23;20516;-90
2021/03/11 01:41:46;;;;;;;63.23;22.37;;;;;;;;;;6146974;23;20175;-89
2021/03/11 01:44:50;;;;;;;66.47;22.50;;;;;;;;;;6145862;23;20181;-91
2021/03/11 01:47:56;;;;;;;63.87;22.10;;;;;;;;;;6147420;23;20189;-91
2021/03/11 01:51:00;;;;;;;60.07;22.47;;;;;;;;;;6145752;23;20667;-90
2021/03/11 01:54:05;;;;;;;64.00;22.67;;;;;;;;;;6146721;23;20241;-91
2021/03/11 01:57:10;;;;;;;60.93;21.83;;;;;;;;;;6146268;23;20236;-91
2021/03/11 02:00:15;;;;;;;65.40;22.57;;;;;;;;;;6146515;23;20169;-89
2021/03/11 02:03:21;;;;;;;65.47;21.97;;;;;;;;;;6146527;23;20293;-90
2021/03/11 02:06:25;;;;;;;63.87;22.30;;;;;;;;;;6146409;23;20196;-90
2021/03/11 02:09:30;;;;;;;63.27;22.97;;;;;;;;;;6163481;23;20176;-90
2021/03/11 02:12:37;;;;;;;62.30;22.67;;;;;;;;;;6146189;23;20228;-92
2021/03/11 02:15:43;;;;;;;67.77;23.87;;;;;;;;;;6145013;23;20703;-90
2021/03/11 02:18:51;;;;;;;60.57;21.13;;;;;;;;;;6145796;23;20629;-89
2021/03/11 02:21:59;;;;;;;67.23;23.53;;;;;;;;;;6146253;23;20176;-89
2021/03/11 02:25:06;;;;;;;71.83;24.50;;;;;;;;;;6145784;23;20173;-90
2021/03/11 02:28:13;;;;;;;68.57;23.43;;;;;;;;;;6146372;23;20216;-90
2021/03/11 02:31:18;;;;;;;66.77;23.40;;;;;;;;;;6145914;23;20228;-90
2021/03/11 02:34:25;;;;;;;69.57;23.17;;;;;;;;;;6144056;23;20172;-89
2021/03/11 02:37:34;;;;;;;68.60;23.20;;;;;;;;;;6144140;23;20195;-91
2021/03/11 02:40:39;;;;;;;69.10;24.07;;;;;;;;;;6144325;23;20605;-92
2021/03/11 02:43:46;;;;;;;66.53;22.97;;;;;;;;;;6144570;23;20160;-90
2021/03/11 02:46:52;;;;;;;73.10;23.97;;;;;;;;;;6146449;23;20168;-90
2021/03/11 02:49:58;;;;;;;71.13;25.50;;;;;;;;;;6143926;23;20557;-90
2021/03/11 02:53:03;;;;;;;74.57;24.40;;;;;;;;;;6145346;23;20160;-89
2021/03/11 02:56:08;;;;;;;65.20;24.33;;;;;;;;;;6144949;23;20196;-90
2021/03/11 02:59:13;;;;;;;83.67;26.07;;;;;;;;;;6146969;23;20701;-90
2021/03/11 03:02:18;;;;;;;84.67;26.47;;;;;;;;;;6148465;23;20171;-91
2021/03/11 03:05:25;;;;;;;78.77;26.73;;;;;;;;;;6146223;23;20168;-91
2021/03/11 03:08:30;;;;;;;84.70;26.60;;;;;;;;;;6146357;23;20172;-91
2021/03/11 03:11:36;;;;;;;79.57;27.07;;;;;;;;;;6145627;23;20201;-89
2021/03/11 03:14:41;;;;;;;76.50;26.23;;;;;;;;;;6145265;23;20228;-91
2021/03/11 03:17:47;;;;;;;83.00;27.50;;;;;;;;;;6146980;23;20208;-89
2021/03/11 03:20:52;;;;;;;62.93;23.43;;;;;;;;;;6146209;23;20217;-90
2021/03/11 03:23:58;;;;;;;67.37;22.90;;;;;;;;;;6146665;23;20172;-90
2021/03/11 03:27:02;;;;;;;63.77;22.57;;;;;;;;;;6146554;23;20223;-88
2021/03/11 03:30:07;;;;;;;66.40;23.20;;;;;;;;;;6144970;23;20249;-89
2021/03/11 03:33:13;;;;;;;69.73;22.80;;;;;;;;;;6144838;23;20171;-90
2021/03/11 03:36:17;;;;;;;68.17;24.20;;;;;;;;;;6145374;23;20176;-91
2021/03/11 03:39:21;;;;;;;68.00;24.03;;;;;;;;;;6146402;23;20194;-90
2021/03/11 03:42:26;;;;;;;75.57;25.03;;;;;;;;;;6146590;23;20244;-92
2021/03/11 03:45:32;;;;;;;80.73;25.23;;;;;;;;;;6145126;23;20167;-90
2021/03/11 03:48:40;;;;;;;77.73;25.73;;;;;;;;;;6146428;23;20260;-90
2021/03/11 03:51:47;;;;;;;78.03;25.13;;;;;;;;;;6146481;23;20169;-89
2021/03/11 03:54:52;;;;;;;69.47;24.73;;;;;;;;;;6146747;23;20176;-90
2021/03/11 03:57:57;;;;;;;74.60;24.40;;;;;;;;;;6148471;23;20548;-90
2021/03/11 04:01:01;;;;;;;74.67;25.57;;;;;;;;;;6148223;23;20185;-91
2021/03/11 04:04:09;;;;;;;71.20;24.27;;;;;;;;;;6147711;23;20169;-88
2021/03/11 04:07:16;;;;;;;76.47;25.80;;;;;;;;;;6147554;23;20192;-90
2021/03/11 04:10:20;;;;;;;74.73;25.13;;;;;;;;;;6148389;23;20169;-91
2021/03/11 04:13:25;;;;;;;71.10;24.03;;;;;;;;;;6148005;23;20208;-90
2021/03/11 04:16:30;;;;;;;74.97;25.00;;;;;;;;;;6147345;23;20196;-88
2021/03/11 04:19:36;;;;;;;72.93;24.80;;;;;;;;;;6147370;23;20177;-89
2021/03/11 04:22:41;;;;;;;79.83;25.50;;;;;;;;;;6147151;23;20161;-89
2021/03/11 04:25:46;;;;;;;69.90;24.50;;;;;;;;;;6146077;23;20168;-88
2021/03/11 04:28:51;;;;;;;73.13;26.47;;;;;;;;;;6147944;23;20164;-88
2021/03/11 04:31:55;;;;;;;65.47;23.87;;;;;;;;;;6147572;23;20592;-88
2021/03/11 04:35:00;;;;;;;63.93;22.80;;;;;;;;;;6147589;23;20168;-91
2021/03/11 04:38:05;;;;;;;63.80;23.23;;;;;;;;;;6147496;23;20665;-90
2021/03/11 04:41:11;;;;;;;62.43;20.93;;;;;;;;;;6146776;23;20173;-89
2021/03/11 04:44:16;;;;;;;65.50;21.93;;;;;;;;;;6148305;23;20664;-91
2021/03/11 04:47:20;;;;;;;65.93;23.23;;;;;;;;;;6147732;23;20164;-92
2021/03/11 04:50:25;;;;;;;63.13;22.80;;;;;;;;;;6147134;23;20216;-89
2021/03/11 04:53:31;;;;;;;62.50;21.87;;;;;;;;;;6147926;23;20172;-90
2021/03/11 04:56:35;;;;;;;72.33;22.20;;;;;;;;;;6146959;23;20196;-92
2021/03/11 04:59:40;;;;;;;70.70;23.20;;;;;;;;;;6143993;23;20184;-90
2021/03/11 05:03:26;;;;;;;76.23;24.17;;;;;;;;;;6147777;23;20161;-90
2021/03/11 05:06:36;;;;;;;71.77;22.90;;;;;;;;;;6146148;23;20241;-89
2021/03/11 05:09:40;;;;;;;76.97;25.23;;;;;;;;;;6146623;23;20260;-88
2021/03/11 05:12:45;;;;;;;68.47;22.87;;;;;;;;;;6145546;23;20175;-90
2021/03/11 05:15:49;;;;;;;77.83;23.70;;;;;;;;;;6146924;23;20165;-91
2021/03/11 05:18:54;;;;;;;75.80;24.23;;;;;;;;;;6148703;23;20644;-90
2021/03/11 05:22:00;;;;;;;79.37;24.73;;;;;;;;;;6147814;23;20173;-90
2021/03/11 05:25:06;;;;;;;75.00;26.37;;;;;;;;;;6146907;23;20172;-89
2021/03/11 05:28:11;;;;;;;83.47;27.77;;;;;;;;;;6148239;23;20176;-91
2021/03/11 05:31:15;;;;;;;74.03;25.30;;;;;;;;;;6146241;23;20256;-89
2021/03/11 05:34:20;;;;;;;85.17;25.17;;;;;;;;;;6147279;23;20240;-89
2021/03/11 05:37:26;;;;;;;78.40;24.17;;;;;;;;;;6148073;23;20192;-90
2021/03/11 05:40:30;;;;;;;78.30;26.23;;;;;;;;;;6146906;23;20215;-90
2021/03/11 05:43:35;;;;;;;77.17;25.73;;;;;;;;;;6163406;23;20172;-89
2021/03/11 05:46:39;;;;;;;78.03;25.37;;;;;;;;;;6148160;23;20207;-88
2021/03/11 05:49:44;;;;;;;87.77;25.87;;;;;;;;;;6147472;23;20245;-90
2021/03/11 05:52:49;;;;;;;82.17;25.30;;;;;;;;;;6148532;23;20172;-89
2021/03/11 05:55:55;;;;;;;71.17;25.30;;;;;;;;;;6147790;23;20200;-88
2021/03/11 05:58:59;;;;;;;77.30;25.13;;;;;;;;;;6147999;23;20180;-89
2021/03/11 06:02:05;;;;;;;77.97;24.43;;;;;;;;;;6148163;23;20220;-90
2021/03/11 06:05:10;;;;;;;84.80;26.27;;;;;;;;;;6146107;23;20172;-90
2021/03/11 06:08:16;;;;;;;75.77;26.13;;;;;;;;;;6149176;23;20185;-91
2021/03/11 06:11:20;;;;;;;71.70;23.13;;;;;;;;;;6147113;23;20208;-89
2021/03/11 06:14:27;;;;;;;79.27;25.33;;;;;;;;;;6147419;23;20228;-90
2021/03/11 06:17:33;;;;;;;73.27;24.17;;;;;;;;;;6147442;23;20192;-89
2021/03/11 06:20:38;;;;;;;70.37;23.47;;;;;;;;;;6148297;23;20255;-90
2021/03/11 06:23:43;;;;;;;69.90;23.10;;;;;;;;;;6145494;23;20214;-89
2021/03/11 06:26:48;;;;;;;74.77;25.10;;;;;;;;;;6146323;23;20168;-91
2021/03/11 06:29:52;;;;;;;65.50;21.23;;;;;;;;;;6146955;23;20188;-88
2021/03/11 06:32:58;;;;;;;61.17;21.73;;;;;;;;;;6161550;23;20160;-91
2021/03/11 06:36:11;;;;;;;71.93;24.87;;;;;;;;;;6154225;23;20213;-93
2021/03/11 06:39:31;;;;;;;69.63;23.17;;;;;;;;;;6150917;23;20514;-88
2021/03/11 06:42:35;;;;;;;71.10;23.73;;;;;;;;;;6149397;23;20216;-91
2021/03/11 06:45:40;;;;;;;64.37;23.23;;;;;;;;;;6146377;23;20172;-90
2021/03/11 06:48:47;;;;;;;66.27;22.40;;;;;;;;;;6150636;23;20247;-91
2021/03/11 06:52:06;;;;;;;63.23;21.87;;;;;;;;;;6148765;23;20172;-89
2021/03/11 06:55:12;;;;;;;70.33;22.00;;;;;;;;;;6149539;23;20165;-90
2021/03/11 06:58:26;;;;;;;61.43;22.10;;;;;;;;;;6155852;23;20156;-89
2021/03/11 07:01:32;;;;;;;61.13;21.83;;;;;;;;;;6159011;23;20172;-89
2021/03/11 07:04:37;;;;;;;57.90;19.77;;;;;;;;;;6151001;23;20164;-88
2021/03/11 07:07:42;;;;;;;53.83;20.43;;;;;;;;;;6147869;23;20196;-88
2021/03/11 07:10:48;;;;;;;56.63;20.23;;;;;;;;;;6149616;23;20201;-89
2021/03/11 07:13:53;;;;;;;50.70;19.27;;;;;;;;;;6148394;23;20243;-86
2021/03/11 07:17:17;;;;;;;54.10;19.13;;;;;;;;;;6148610;23;20227;-90
2021/03/11 07:20:23;;;;;;;58.17;20.07;;;;;;;;;;6150760;23;20176;-92
2021/03/11 07:23:28;;;;;;;138.10;48.30;;;;;;;;;;6150572;23;20236;-90
2021/03/11 07:26:38;;;;;;;72.97;26.00;;;;;;;;;;6153141;23;20192;-90
2021/03/11 07:29:42;;;;;;;50.57;19.60;;;;;;;;;;6150911;23;20173;-90
2021/03/11 07:32:47;;;;;;;65.77;26.30;;;;;;;;;;6151754;23;20197;-89
2021/03/11 07:35:54;;;;;;;53.03;18.07;;;;;;;;;;6154106;23;20173;-92
2021/03/11 07:39:00;;;;;;;61.53;21.47;;;;;;;;;;6155798;23;20168;-91
2021/03/11 07:42:07;;;;;;;50.70;18.93;;;;;;;;;;6172493;23;20237;-91
2021/03/11 07:45:13;;;;;;;61.50;20.13;;;;;;;;;;6152164;23;20621;-88
2021/03/11 07:48:18;;;;;;;53.60;19.77;;;;;;;;;;6154860;23;20231;-89
2021/03/11 07:51:23;;;;;;;56.93;19.20;;;;;;;;;;6154157;23;20164;-89
2021/03/11 07:54:32;;;;;;;54.33;19.20;;;;;;;;;;6151033;23;20167;-89
2021/03/11 07:57:44;;;;;;;46.77;18.07;;;;;;;;;;6152672;23;20220;-91
2021/03/11 08:00:48;;;;;;;45.60;17.20;;;;;;;;;;6151887;23;20169;-89
2021/03/11 08:03:53;;;;;;;47.77;17.03;;;;;;;;;;6153658;23;20158;-90
2021/03/11 08:07:19;;;;;;;45.07;17.53;;;;;;;;;;6154157;23;20163;-89
2021/03/11 08:10:23;;;;;;;47.57;17.37;;;;;;;;;;6154786;23;20278;-89
2021/03/11 08:13:30;;;;;;;43.43;17.07;;;;;;;;;;6154439;23;20267;-93
2021/03/11 08:16:35;;;;;;;42.57;16.93;;;;;;;;;;6154629;23;20240;-89
2021/03/11 08:19:50;;;;;;;44.20;17.07;;;;;;;;;;6156912;23;20176;-89
2021/03/11 08:23:01;;;;;;;45.70;18.23;;;;;;;;;;6157258;23;20216;-92
2021/03/11 08:26:06;;;;;;;50.73;16.83;;;;;;;;;;6158790;23;20216;-92
2021/03/11 08:29:26;;;;;;;45.63;16.17;;;;;;;;;;6156588;23;20234;-91
2021/03/11 08:32:50;;;;;;;43.90;17.03;;;;;;;;;;6153811;23;20168;-90
2021/03/11 23:07:05;;;;;;;1.37;0.90;;;;;;;;;;6229370;23;20159;-90
2021/03/11 23:10:13;;;;;;;1.20;0.70;;;;;;;;;;6227222;23;20167;-88
2021/03/11 23:13:19;;;;;;;1.27;0.80;;;;;;;;;;6225769;23;20175;-90
2021/03/11 23:16:24;;;;;;;0.90;0.60;;;;;;;;;;6226629;22;20242;-89
2021/03/11 23:19:29;;;;;;;1.03;0.60;;;;;;;;;;6228279;23;20175;-91
2021/03/11 23:22:34;;;;;;;2.33;0.60;;;;;;;;;;6226392;23;20174;-90
2021/03/11 23:25:39;;;;;;;1.83;0.67;;;;;;;;;;6226567;23;20183;-92
2021/03/11 23:28:45;;;;;;;1.00;0.50;;;;;;;;;;6227849;23;20163;-91
2021/03/11 23:31:50;;;;;;;1.10;0.50;;;;;;;;;;6225766;23;20186;-91
2021/03/11 23:34:54;;;;;;;3.70;0.80;;;;;;;;;;6227684;23;20170;-88
2021/03/11 23:37:59;;;;;;;1.90;0.70;;;;;;;;;;6225758;23;20215;-90
2021/03/11 23:41:03;;;;;;;2.20;0.97;;;;;;;;;;6207290;23;20170;-90
2021/03/11 23:44:08;;;;;;;2.33;0.67;;;;;;;;;;6208277;23;20186;-88
2021/03/11 23:47:12;;;;;;;1.53;0.60;;;;;;;;;;6207745;23;20180;-88
2021/03/11 23:50:19;;;;;;;2.70;0.90;;;;;;;;;;6206666;23;20222;-89
2021/03/11 23:53:26;;;;;;;2.03;0.50;;;;;;;;;;6224582;23;20240;-90
2021/03/11 23:56:30;;;;;;;0.80;0.60;;;;;;;;;;6225080;23;20154;-89
2021/03/11 23:59:35;;;;;;;1.23;0.70;;;;;;;;;;6207858;23;20171;-89
